»·PEaware :: WAT202 KSNA-KPHX

WAT202 :: KSNA-KPHX

FLIGHT INFORMATION

Flight Status: Arrived
Operator:
Walker Air Transport
More flights by this operator :: More flights under this callsign
Pilot: Nick L. (7253)
Aircraft: AIRBUS A300B4-600
(A306)
More flights by this aircraft type
Origin: KSNA John Wayne-Orange Co
United States
Destination: KPHX Phoenix Sky Harbor Intl
United States
More flights between these airports :: More routes between these airports
Route: PIGGN2 CNERY BLH HYDRR1
File this flight plan on PilotEdge
Remarks: RMK / SIMBRIEF
Altitude:
(Current/Filed)
33,000ft
Speed:
(Current/Filed)
442kts
Departed: 06-Mar-21 08:54 PM
Arrived: 06-Mar-21 09:49 PM
Distance/Time
Traveled:
294nm/0:55
Distance/Time
To Go:
Arrived

Flight Plot

Page will automatically refresh every two minutes.

Flight plan parsing failed; only flown route is shown


Map Options




Map Legend


Flown Route
Filed Route
Departure Airport
Arrival Airport
Navaid (VOR, NDB)
Fix

Horizontal Profiles

Position Reports

Time Latitude Longitude Heading Altitude Ground
Speed
06-Mar-21 20:23 33.675728 -117.864694 117 69ft 0kts
06-Mar-21 20:24 33.675728 -117.864694 117 69ft 0kts
06-Mar-21 20:25 33.675728 -117.864694 117 69ft 0kts
06-Mar-21 20:26 33.675728 -117.864694 117 69ft 0kts
06-Mar-21 20:27 33.675728 -117.864694 117 69ft 0kts
06-Mar-21 20:28 33.675728 -117.864694 117 69ft 0kts
06-Mar-21 20:29 33.675728 -117.864694 117 69ft 0kts
06-Mar-21 20:30 33.675728 -117.864694 117 69ft 0kts
06-Mar-21 20:31 33.675728 -117.864694 117 69ft 0kts
06-Mar-21 20:32 33.675728 -117.864694 117 69ft 0kts
06-Mar-21 20:33 33.675728 -117.864694 117 69ft 0kts
06-Mar-21 20:34 33.675728 -117.864694 117 69ft 0kts
06-Mar-21 20:35 33.675728 -117.864694 117 69ft 0kts
06-Mar-21 20:36 33.675728 -117.864694 117 69ft 0kts
06-Mar-21 20:37 33.675728 -117.864694 117 69ft 0kts
06-Mar-21 20:38 33.675728 -117.864694 117 69ft 0kts
06-Mar-21 20:39 33.675728 -117.864694 117 69ft 0kts
06-Mar-21 20:40 33.675728 -117.864694 117 69ft 0kts
06-Mar-21 20:41 33.675728 -117.864694 117 69ft 0kts
06-Mar-21 20:42 33.675728 -117.864694 117 69ft 0kts
06-Mar-21 20:43 33.675728 -117.864694 117 69ft 0kts
06-Mar-21 20:45 33.675728 -117.864694 117 69ft 0kts
06-Mar-21 20:46 33.675728 -117.864694 117 69ft 0kts
06-Mar-21 20:47 33.675848 -117.864976 116 69ft 1kts
06-Mar-21 20:48 33.675718 -117.865460 27 69ft 0kts
06-Mar-21 20:49 33.675719 -117.865460 27 69ft 0kts
06-Mar-21 20:50 33.675759 -117.865435 27 69ft 1kts
06-Mar-21 20:51 33.679301 -117.863208 24 69ft 19kts
06-Mar-21 20:52 33.680685 -117.863148 297 69ft 5kts
06-Mar-21 20:53 33.681161 -117.865359 208 69ft 3kts
06-Mar-21 20:54 33.655103 -117.879181 190 1366ft 161kts
06-Mar-21 20:55 33.600510 -117.891841 194 3256ft 246kts
06-Mar-21 20:56 33.532675 -117.875132 153 7217ft 272kts
06-Mar-21 20:57 33.486085 -117.801634 116 10805ft 318kts
06-Mar-21 20:58 33.490915 -117.683328 62 12734ft 400kts
06-Mar-21 20:59 33.544155 -117.565010 66 12977ft 404kts
06-Mar-21 21:00 33.559775 -117.432653 94 12992ft 406kts
06-Mar-21 21:01 33.524420 -117.300632 111 16800ft 424kts
06-Mar-21 21:02 33.504898 -117.158033 92 20446ft 447kts
06-Mar-21 21:03 33.501205 -117.006627 91 23066ft 466kts
06-Mar-21 21:04 33.498128 -116.849464 90 24807ft 478kts
06-Mar-21 21:05 33.496214 -116.688425 90 25701ft 490kts
06-Mar-21 21:06 33.494246 -116.523854 90 26511ft 496kts
06-Mar-21 21:06 33.492428 -116.385824 90 27049ft 498kts
06-Mar-21 21:08 33.489344 -116.191844 91 27687ft 501kts
06-Mar-21 21:09 33.482318 -116.027913 71 28265ft 501kts
06-Mar-21 21:09 33.524088 -115.897952 69 29531ft 500kts
06-Mar-21 21:11 33.578131 -115.715453 69 32394ft 501kts
06-Mar-21 21:11 33.609606 -115.582225 76 32913ft 495kts
06-Mar-21 21:12 33.612057 -115.417787 91 32921ft 494kts
06-Mar-21 21:14 33.608075 -115.226391 91 32998ft 493kts
06-Mar-21 21:14 33.605006 -115.089817 91 32999ft 492kts
06-Mar-21 21:15 33.601192 -114.925286 91 32990ft 491kts
06-Mar-21 21:16 33.592459 -114.762455 100 33004ft 491kts
06-Mar-21 21:17 33.563498 -114.602857 102 33001ft 490kts
06-Mar-21 21:18 33.535787 -114.457432 102 31546ft 466kts
06-Mar-21 21:19 33.506576 -114.306077 103 28438ft 470kts
06-Mar-21 21:20 33.477708 -114.156815 102 26071ft 462kts
06-Mar-21 21:21 33.450128 -114.016495 103 24998ft 415kts
06-Mar-21 21:22 33.422918 -113.881280 102 23999ft 414kts
06-Mar-21 21:23 33.396192 -113.748574 103 23004ft 409kts
06-Mar-21 21:24 33.369643 -113.616951 103 22008ft 404kts
06-Mar-21 21:25 33.343413 -113.487378 103 20951ft 395kts
06-Mar-21 21:26 33.320181 -113.360159 101 19165ft 391kts
06-Mar-21 21:27 33.298258 -113.233266 101 17324ft 385kts
06-Mar-21 21:28 33.280018 -113.109871 99 15820ft 369kts
06-Mar-21 21:29 33.276004 -112.993546 87 14285ft 331kts
06-Mar-21 21:30 33.278796 -112.883128 87 12855ft 329kts
06-Mar-21 21:31 33.297682 -112.780676 66 11779ft 310kts
06-Mar-21 21:32 33.331633 -112.687444 66 10596ft 297kts
06-Mar-21 21:33 33.363506 -112.603164 67 9401ft 268kts
06-Mar-21 21:34 33.392228 -112.527535 67 8390ft 258kts
06-Mar-21 21:35 33.419880 -112.451469 69 7441ft 246kts
06-Mar-21 21:36 33.430547 -112.373628 92 6377ft 240kts
06-Mar-21 21:37 33.429709 -112.295086 91 5491ft 231kts
06-Mar-21 21:38 33.439393 -112.222883 79 5074ft 209kts
06-Mar-21 21:39 33.440800 -112.151853 92 4170ft 218kts
06-Mar-21 21:40 33.440757 -112.078435 91 3738ft 226kts
06-Mar-21 21:41 33.456120 -112.012335 26 3710ft 197kts
06-Mar-21 21:42 33.506807 -112.033628 309 3780ft 205kts
06-Mar-21 21:43 33.511251 -112.099716 251 3798ft 204kts
06-Mar-21 21:44 33.469181 -112.132833 182 3361ft 166kts
06-Mar-21 21:45 33.440313 -112.104004 87 2353ft 150kts
06-Mar-21 21:46 33.440757 -112.054692 91 1644ft 147kts
06-Mar-21 21:47 33.440845 -112.011223 90 1148ft 66kts
06-Mar-21 21:48 33.439785 -112.004012 135 1148ft 1kts
06-Mar-21 21:49 33.439430 -112.003850 162 1148ft 6kts
06-Mar-21 21:50 33.438964 -111.999207 147 1148ft 1kts
06-Mar-21 21:51 33.437733 -112.000611 191 1148ft 10kts
06-Mar-21 21:52 33.437133 -111.999856 89 1148ft 0kts
06-Mar-21 21:53 33.437133 -111.999880 89 1148ft 0kts
06-Mar-21 21:54 33.437133 -111.999880 89 1148ft 0kts

Navigation Log

Ident Type
Flight plan parsing failed, navigation log unavailable